This is the latest recevied weather packets stored in our database for station/object WY7ATH-2. If no packets are shown the sender has not sent any weather packets the latest 10 day(s).
| Time | Temp. | Humidity | Pressure | Rain* | Wind** | Luminosity | Snow |
|---|---|---|---|---|---|---|---|
| 1777696043 | 1.67° C | - | - | 0 mm | 0 m/s | - | - |
| 1777694249 | 2.22° C | - | - | 0 mm | 0 m/s | - | - |
| 1777693056 | 2.22° C | - | - | 0 mm | 0 m/s | - | - |
| 1777691858 | 3.33° C | - | - | 0 mm | 0 m/s | - | - |
| 1777691261 | 2.22° C | - | - | 0 mm | 0 m/s | - | - |
| 1777690664 | 3.33° C | - | - | 5.84 mm | 0 m/s | - | - |
| 1777690067 | 2.78° C | - | - | 5.84 mm | 0 m/s | - | - |
| 1777689470 | 3.33° C | - | - | 5.84 mm | 0 m/s | - | - |
| 1777688874 | 3.33° C | - | - | 5.84 mm | 0 m/s | - | - |
| 1777673336 | 14.44° C | - | - | 14.73 mm | 0 m/s | - | - |
| 1777669751 | 11.11° C | - | - | 17.02 mm | 0 m/s | - | - |
| 1777666763 | 13.33° C | - | - | 18.29 mm | 0 m/s | - | - |
| 1777664971 | 10° C | - | - | 20.07 mm | 0 m/s | - | - |
| 1777658994 | 13.33° C | - | - | 19.3 mm | 0 m/s | - | - |
| 1777656606 | 12.78° C | - | - | 17.53 mm | 0 m/s | - | - |
| 1777653618 | 11.11° C | - | - | 15.24 mm | 0 m/s | - | - |
| 1777652420 | 11.11° C | - | - | 15.24 mm | 0 m/s | - | - |
| 1777651823 | 11.11° C | - | - | 15.24 mm | 0 m/s | - | - |
| 1777648834 | 10° C | - | - | 7.37 mm | 0 m/s | - | - |
| 1777647640 | 10.56° C | - | - | 7.37 mm | 0 m/s | - | - |
| 1777641664 | 8.33° C | - | - | 2.03 mm | 0 m/s | - | - |
| 1777632705 | -2.78° C | - | - | 0 mm | 0 m/s | - | - |
| 1777630313 | -2.78° C | - | - | 0 mm | 0 m/s | - | - |
| 1777626131 | -2.78° C | - | - | 0 mm | 0 m/s | - | - |
| 1777625534 | -2.78° C | - | - | 0 mm | 0 m/s | - | - |
* Rain latest hour (hover to see other rain measurements)
** Current wind speed in m/s (hover to see current wind gust speed)